Current Weather

Lansing Muni

Chicago, Illinois (KIGQ)

Report from: Friday, February 3, 2023 11:55 PM CST
Current time: Saturday, February 4, 2023 12:44 AM CST

Nearby weather
Weather history
Weather forecast

Temperature-11.9°C (10.6°F)
Wind chill-17.2°C (1.0°F)
Dew point-17.5°C (0.5°F)
Winds 5 kts (2.6 m/s, 5.8 mph) South (180°)
Visibility10 mi. (16.1 km)
Clouds Scattered clouds 6,000 ft. (1,829 m)
Altimeter30.49 in.Hg (1033 mB)
Relative humidity63 %
Density altitude-4,009 ft. (-1,222 m)
Max temp last 6 hours-10.7°C (12.7°F)
Min temp last 6 hours-13.2°C (8.2°F)
Max temp last 24 hours-10.1°C (13.8°F)
Min temp last 24 hours-16.1°C (3.0°F)
Remarks Fully automated report
Automated weather observing station with precipitation discriminator
Flight conditions Visual Meteorological Conditions
Raw dataKIGQ 040555Z AUTO 18005KT 10SM SCT060 M12/M17 A3049 RMK AO2 T11191175 11107 21132 411011161
An unhandled exception has occurred. See browser dev tools for details. Reload 🗙